Hudgins, Virginia
Current Conditions -  °F | °C
As of 9:35 PM on Sunday 23 Nov 2014 (Local Time) from KW75 Reporting Station
Overcast Overcast  
Wind Chill: 55°   Ceiling: 4400
Heat Index: 55°   Visibility: 10mi
Dew Point: 53°   Wind: 7mph
Humidity: 93%   Direction: 120°ESE
Pressure: 29.95"   Gusts: NA
Location:  37.47°N, 76.33°W
Report Text: KW75 240235Z AUTO 12006KT 10SM SCT032 BKN044 OVC070 13/12 A2995 RMK AO1 T01270116
Loading
Personal Weather Stations






























Interactive Weather Map New forecast layout! Learn more

10-Day Weather Forecast

Advertisements
Track Severe Weather on mobile